sensor_id;sensor_type;location;lat;lon;timestamp;P1;durP1;ratioP1;P2;durP2;ratioP2
52668;SDS011;76842;52.786;6.892;2024-03-02T00:02:50;6.45;;;3.60;;
52668;SDS011;76842;52.786;6.892;2024-03-02T00:06:11;4.43;;;3.47;;
52668;SDS011;76842;52.786;6.892;2024-03-02T00:09:32;6.03;;;4.47;;
52668;SDS011;76842;52.786;6.892;2024-03-02T00:12:53;5.57;;;3.58;;
52668;SDS011;76842;52.786;6.892;2024-03-02T00:16:13;5.47;;;3.92;;
52668;SDS011;76842;52.786;6.892;2024-03-02T00:19:38;6.75;;;4.13;;
52668;SDS011;76842;52.786;6.892;2024-03-02T00:23:03;6.55;;;3.97;;
52668;SDS011;76842;52.786;6.892;2024-03-02T00:26:26;5.13;;;3.72;;
52668;SDS011;76842;52.786;6.892;2024-03-02T00:29:46;6.40;;;4.25;;
52668;SDS011;76842;52.786;6.892;2024-03-02T00:33:07;6.20;;;4.35;;
52668;SDS011;76842;52.786;6.892;2024-03-02T00:36:27;10.77;;;4.75;;
52668;SDS011;76842;52.786;6.892;2024-03-02T00:39:49;7.07;;;4.72;;
52668;SDS011;76842;52.786;6.892;2024-03-02T00:43:25;6.28;;;4.03;;
52668;SDS011;76842;52.786;6.892;2024-03-02T00:47:05;6.97;;;4.32;;
52668;SDS011;76842;52.786;6.892;2024-03-02T00:50:26;6.15;;;4.57;;
52668;SDS011;76842;52.786;6.892;2024-03-02T00:53:46;6.05;;;4.35;;
52668;SDS011;76842;52.786;6.892;2024-03-02T00:57:09;8.23;;;4.32;;
52668;SDS011;76842;52.786;6.892;2024-03-02T01:00:32;6.47;;;4.78;;
52668;SDS011;76842;52.786;6.892;2024-03-02T01:03:52;6.72;;;4.63;;
52668;SDS011;76842;52.786;6.892;2024-03-02T01:07:13;7.38;;;4.57;;
52668;SDS011;76842;52.786;6.892;2024-03-02T01:10:33;7.45;;;4.40;;
52668;SDS011;76842;52.786;6.892;2024-03-02T01:13:54;6.38;;;4.78;;
52668;SDS011;76842;52.786;6.892;2024-03-02T01:17:15;6.95;;;4.35;;
52668;SDS011;76842;52.786;6.892;2024-03-02T01:20:35;8.35;;;5.25;;
52668;SDS011;76842;52.786;6.892;2024-03-02T01:23:56;8.25;;;4.13;;
52668;SDS011;76842;52.786;6.892;2024-03-02T01:27:16;10.38;;;4.85;;
52668;SDS011;76842;52.786;6.892;2024-03-02T01:30:37;5.18;;;4.18;;
52668;SDS011;76842;52.786;6.892;2024-03-02T01:33:57;6.07;;;4.22;;
52668;SDS011;76842;52.786;6.892;2024-03-02T01:37:18;6.70;;;4.32;;
52668;SDS011;76842;52.786;6.892;2024-03-02T01:40:39;7.13;;;4.53;;
52668;SDS011;76842;52.786;6.892;2024-03-02T01:43:59;6.43;;;4.15;;
52668;SDS011;76842;52.786;6.892;2024-03-02T01:47:20;5.35;;;4.10;;
52668;SDS011;76842;52.786;6.892;2024-03-02T01:50:41;6.25;;;4.53;;
52668;SDS011;76842;52.786;6.892;2024-03-02T01:54:02;4.97;;;3.58;;
52668;SDS011;76842;52.786;6.892;2024-03-02T01:57:22;8.55;;;5.65;;
52668;SDS011;76842;52.786;6.892;2024-03-02T02:00:43;6.97;;;4.88;;
52668;SDS011;76842;52.786;6.892;2024-03-02T02:04:05;8.80;;;4.95;;
52668;SDS011;76842;52.786;6.892;2024-03-02T02:07:26;6.63;;;4.57;;
52668;SDS011;76842;52.786;6.892;2024-03-02T02:10:47;8.25;;;4.63;;
52668;SDS011;76842;52.786;6.892;2024-03-02T02:14:07;5.28;;;4.10;;
52668;SDS011;76842;52.786;6.892;2024-03-02T02:17:28;6.97;;;4.60;;
52668;SDS011;76842;52.786;6.892;2024-03-02T02:20:48;9.52;;;3.80;;
52668;SDS011;76842;52.786;6.892;2024-03-02T02:24:09;6.40;;;4.28;;
52668;SDS011;76842;52.786;6.892;2024-03-02T02:27:30;6.25;;;4.10;;
52668;SDS011;76842;52.786;6.892;2024-03-02T02:30:51;5.85;;;4.32;;
52668;SDS011;76842;52.786;6.892;2024-03-02T02:34:11;5.72;;;3.85;;
52668;SDS011;76842;52.786;6.892;2024-03-02T02:37:33;4.33;;;3.73;;
52668;SDS011;76842;52.786;6.892;2024-03-02T02:40:54;11.15;;;4.80;;
52668;SDS011;76842;52.786;6.892;2024-03-02T02:44:15;7.35;;;3.97;;
52668;SDS011;76842;52.786;6.892;2024-03-02T02:47:35;6.47;;;3.80;;
52668;SDS011;76842;52.786;6.892;2024-03-02T02:50:56;5.82;;;3.65;;
52668;SDS011;76842;52.786;6.892;2024-03-02T02:54:16;5.25;;;3.67;;
52668;SDS011;76842;52.786;6.892;2024-03-02T02:57:38;6.40;;;3.80;;
52668;SDS011;76842;52.786;6.892;2024-03-02T03:01:01;6.53;;;3.70;;
52668;SDS011;76842;52.786;6.892;2024-03-02T03:04:22;5.78;;;4.68;;
52668;SDS011;76842;52.786;6.892;2024-03-02T03:07:43;6.68;;;5.25;;
52668;SDS011;76842;52.786;6.892;2024-03-02T03:11:04;5.07;;;3.58;;
52668;SDS011;76842;52.786;6.892;2024-03-02T03:14:25;5.25;;;4.05;;
52668;SDS011;76842;52.786;6.892;2024-03-02T03:17:45;8.73;;;3.50;;
52668;SDS011;76842;52.786;6.892;2024-03-02T03:21:07;4.75;;;3.63;;
52668;SDS011;76842;52.786;6.892;2024-03-02T03:24:27;4.57;;;3.45;;
52668;SDS011;76842;52.786;6.892;2024-03-02T03:27:48;5.47;;;3.28;;
52668;SDS011;76842;52.786;6.892;2024-03-02T03:31:09;4.63;;;3.38;;
52668;SDS011;76842;52.786;6.892;2024-03-02T03:34:33;4.72;;;2.97;;
52668;SDS011;76842;52.786;6.892;2024-03-02T03:37:54;5.07;;;3.40;;
52668;SDS011;76842;52.786;6.892;2024-03-02T03:41:15;5.93;;;3.97;;
52668;SDS011;76842;52.786;6.892;2024-03-02T03:44:35;5.68;;;3.70;;
52668;SDS011;76842;52.786;6.892;2024-03-02T03:47:56;3.80;;;3.15;;
52668;SDS011;76842;52.786;6.892;2024-03-02T03:51:17;5.55;;;2.92;;
52668;SDS011;76842;52.786;6.892;2024-03-02T03:54:37;11.38;;;3.47;;
52668;SDS011;76842;52.786;6.892;2024-03-02T03:57:58;4.60;;;3.38;;
52668;SDS011;76842;52.786;6.892;2024-03-02T04:01:19;5.13;;;3.10;;
52668;SDS011;76842;52.786;6.892;2024-03-02T04:04:42;5.80;;;3.70;;
52668;SDS011;76842;52.786;6.892;2024-03-02T04:08:03;5.35;;;3.50;;
52668;SDS011;76842;52.786;6.892;2024-03-02T04:11:24;6.43;;;3.75;;
52668;SDS011;76842;52.786;6.892;2024-03-02T04:14:45;6.57;;;4.20;;
52668;SDS011;76842;52.786;6.892;2024-03-02T04:18:06;5.32;;;3.55;;
52668;SDS011;76842;52.786;6.892;2024-03-02T04:21:26;6.13;;;3.97;;
52668;SDS011;76842;52.786;6.892;2024-03-02T04:24:47;6.90;;;4.60;;
52668;SDS011;76842;52.786;6.892;2024-03-02T04:28:08;5.93;;;4.53;;
52668;SDS011;76842;52.786;6.892;2024-03-02T04:31:28;6.00;;;4.55;;
52668;SDS011;76842;52.786;6.892;2024-03-02T04:34:49;6.47;;;4.43;;
52668;SDS011;76842;52.786;6.892;2024-03-02T04:38:09;6.60;;;3.83;;
52668;SDS011;76842;52.786;6.892;2024-03-02T04:41:30;6.32;;;4.55;;
52668;SDS011;76842;52.786;6.892;2024-03-02T04:44:51;6.47;;;4.03;;
52668;SDS011;76842;52.786;6.892;2024-03-02T04:48:11;11.45;;;4.88;;
52668;SDS011;76842;52.786;6.892;2024-03-02T04:51:33;5.50;;;3.90;;
52668;SDS011;76842;52.786;6.892;2024-03-02T04:54:54;5.88;;;4.65;;
52668;SDS011;76842;52.786;6.892;2024-03-02T04:58:30;6.57;;;4.03;;
52668;SDS011;76842;52.786;6.892;2024-03-02T05:01:50;7.05;;;4.28;;
52668;SDS011;76842;52.786;6.892;2024-03-02T05:05:11;5.80;;;4.43;;
52668;SDS011;76842;52.786;6.892;2024-03-02T05:08:32;5.90;;;4.55;;
52668;SDS011;76842;52.786;6.892;2024-03-02T05:11:52;8.07;;;4.97;;
52668;SDS011;76842;52.786;6.892;2024-03-02T05:15:29;7.07;;;4.93;;
52668;SDS011;76842;52.786;6.892;2024-03-02T05:18:50;5.85;;;4.78;;
52668;SDS011;76842;52.786;6.892;2024-03-02T05:22:10;6.60;;;4.22;;
52668;SDS011;76842;52.786;6.892;2024-03-02T05:25:31;6.75;;;5.32;;
52668;SDS011;76842;52.786;6.892;2024-03-02T05:28:52;7.60;;;5.47;;
52668;SDS011;76842;52.786;6.892;2024-03-02T05:32:13;6.45;;;4.75;;
52668;SDS011;76842;52.786;6.892;2024-03-02T05:35:33;6.75;;;5.07;;
52668;SDS011;76842;52.786;6.892;2024-03-02T05:38:54;8.75;;;5.72;;
52668;SDS011;76842;52.786;6.892;2024-03-02T05:42:14;6.68;;;4.88;;
52668;SDS011;76842;52.786;6.892;2024-03-02T05:45:36;8.48;;;6.05;;
52668;SDS011;76842;52.786;6.892;2024-03-02T05:48:58;7.55;;;4.80;;
52668;SDS011;76842;52.786;6.892;2024-03-02T05:52:19;8.15;;;5.75;;
52668;SDS011;76842;52.786;6.892;2024-03-02T05:55:40;5.72;;;4.45;;
52668;SDS011;76842;52.786;6.892;2024-03-02T05:59:01;6.72;;;4.50;;
52668;SDS011;76842;52.786;6.892;2024-03-02T06:02:33;8.70;;;5.27;;
52668;SDS011;76842;52.786;6.892;2024-03-02T06:05:55;6.85;;;4.60;;
52668;SDS011;76842;52.786;6.892;2024-03-02T06:09:15;4.97;;;4.40;;
52668;SDS011;76842;52.786;6.892;2024-03-02T06:12:36;6.57;;;5.10;;
52668;SDS011;76842;52.786;6.892;2024-03-02T06:15:57;6.22;;;5.03;;
52668;SDS011;76842;52.786;6.892;2024-03-02T06:19:17;6.93;;;5.28;;
52668;SDS011;76842;52.786;6.892;2024-03-02T06:22:38;6.32;;;5.63;;
52668;SDS011;76842;52.786;6.892;2024-03-02T06:25:58;6.40;;;4.75;;
52668;SDS011;76842;52.786;6.892;2024-03-02T06:29:19;5.47;;;4.57;;
52668;SDS011;76842;52.786;6.892;2024-03-02T06:32:40;4.35;;;3.95;;
52668;SDS011;76842;52.786;6.892;2024-03-02T06:36:00;8.35;;;5.07;;
52668;SDS011;76842;52.786;6.892;2024-03-02T06:39:21;6.07;;;4.65;;
52668;SDS011;76842;52.786;6.892;2024-03-02T06:42:42;4.60;;;4.05;;
52668;SDS011;76842;52.786;6.892;2024-03-02T06:46:02;5.70;;;3.95;;
52668;SDS011;76842;52.786;6.892;2024-03-02T06:49:23;6.88;;;4.38;;
52668;SDS011;76842;52.786;6.892;2024-03-02T06:52:44;8.23;;;5.13;;
52668;SDS011;76842;52.786;6.892;2024-03-02T06:56:04;8.13;;;5.47;;
52668;SDS011;76842;52.786;6.892;2024-03-02T06:59:26;8.15;;;6.10;;
52668;SDS011;76842;52.786;6.892;2024-03-02T07:02:47;7.68;;;5.45;;
52668;SDS011;76842;52.786;6.892;2024-03-02T07:06:08;7.20;;;5.30;;
52668;SDS011;76842;52.786;6.892;2024-03-02T07:09:28;7.03;;;5.30;;
52668;SDS011;76842;52.786;6.892;2024-03-02T07:12:49;6.80;;;5.60;;
52668;SDS011;76842;52.786;6.892;2024-03-02T07:16:09;8.07;;;5.68;;
52668;SDS011;76842;52.786;6.892;2024-03-02T07:19:49;6.40;;;4.97;;
52668;SDS011;76842;52.786;6.892;2024-03-02T07:23:10;7.28;;;5.00;;
52668;SDS011;76842;52.786;6.892;2024-03-02T07:26:30;7.30;;;5.03;;
52668;SDS011;76842;52.786;6.892;2024-03-02T07:29:51;9.25;;;5.53;;
52668;SDS011;76842;52.786;6.892;2024-03-02T07:33:12;9.27;;;6.13;;
52668;SDS011;76842;52.786;6.892;2024-03-02T07:36:32;8.13;;;5.13;;
52668;SDS011;76842;52.786;6.892;2024-03-02T07:39:53;8.43;;;5.72;;
52668;SDS011;76842;52.786;6.892;2024-03-02T07:43:14;6.97;;;4.78;;
52668;SDS011;76842;52.786;6.892;2024-03-02T07:46:34;7.60;;;5.18;;
52668;SDS011;76842;52.786;6.892;2024-03-02T07:49:55;10.43;;;5.00;;
52668;SDS011;76842;52.786;6.892;2024-03-02T07:53:16;8.20;;;5.20;;
52668;SDS011;76842;52.786;6.892;2024-03-02T07:56:36;7.25;;;5.15;;
52668;SDS011;76842;52.786;6.892;2024-03-02T07:59:57;7.90;;;5.60;;
52668;SDS011;76842;52.786;6.892;2024-03-02T08:03:19;5.88;;;4.28;;
52668;SDS011;76842;52.786;6.892;2024-03-02T08:06:40;7.95;;;4.88;;
52668;SDS011;76842;52.786;6.892;2024-03-02T08:10:00;5.35;;;4.15;;
52668;SDS011;76842;52.786;6.892;2024-03-02T08:13:21;7.07;;;4.80;;
52668;SDS011;76842;52.786;6.892;2024-03-02T08:16:41;5.40;;;4.50;;
52668;SDS011;76842;52.786;6.892;2024-03-02T08:20:02;7.13;;;5.07;;
52668;SDS011;76842;52.786;6.892;2024-03-02T08:23:23;7.38;;;4.88;;
52668;SDS011;76842;52.786;6.892;2024-03-02T08:26:43;5.03;;;4.53;;
52668;SDS011;76842;52.786;6.892;2024-03-02T08:30:04;6.95;;;4.63;;
52668;SDS011;76842;52.786;6.892;2024-03-02T08:33:26;6.60;;;4.55;;
52668;SDS011;76842;52.786;6.892;2024-03-02T08:36:47;7.65;;;5.07;;
52668;SDS011;76842;52.786;6.892;2024-03-02T08:40:08;8.07;;;5.18;;
52668;SDS011;76842;52.786;6.892;2024-03-02T08:43:29;7.72;;;4.75;;
52668;SDS011;76842;52.786;6.892;2024-03-02T08:46:49;7.32;;;5.25;;
52668;SDS011;76842;52.786;6.892;2024-03-02T08:50:10;5.68;;;4.20;;
52668;SDS011;76842;52.786;6.892;2024-03-02T08:53:31;7.68;;;4.85;;
52668;SDS011;76842;52.786;6.892;2024-03-02T08:56:51;6.78;;;3.78;;
52668;SDS011;76842;52.786;6.892;2024-03-02T09:00:12;5.40;;;2.95;;
52668;SDS011;76842;52.786;6.892;2024-03-02T09:03:33;5.45;;;3.47;;
52668;SDS011;76842;52.786;6.892;2024-03-02T09:06:54;5.65;;;3.20;;
52668;SDS011;76842;52.786;6.892;2024-03-02T09:10:15;3.65;;;2.33;;
52668;SDS011;76842;52.786;6.892;2024-03-02T09:13:36;5.78;;;4.03;;
52668;SDS011;76842;52.786;6.892;2024-03-02T09:16:57;5.82;;;3.60;;
52668;SDS011;76842;52.786;6.892;2024-03-02T09:20:18;4.65;;;3.42;;
52668;SDS011;76842;52.786;6.892;2024-03-02T09:23:38;5.32;;;3.67;;
52668;SDS011;76842;52.786;6.892;2024-03-02T09:27:00;5.88;;;4.32;;
52668;SDS011;76842;52.786;6.892;2024-03-02T09:30:20;6.00;;;3.58;;
52668;SDS011;76842;52.786;6.892;2024-03-02T09:33:41;4.30;;;2.75;;
52668;SDS011;76842;52.786;6.892;2024-03-02T09:37:02;5.05;;;3.00;;
52668;SDS011;76842;52.786;6.892;2024-03-02T09:40:23;4.32;;;3.20;;
52668;SDS011;76842;52.786;6.892;2024-03-02T09:43:45;4.95;;;3.75;;
52668;SDS011;76842;52.786;6.892;2024-03-02T09:47:06;5.20;;;3.42;;
52668;SDS011;76842;52.786;6.892;2024-03-02T09:50:27;6.22;;;3.40;;
52668;SDS011;76842;52.786;6.892;2024-03-02T09:53:47;4.55;;;3.63;;
52668;SDS011;76842;52.786;6.892;2024-03-02T09:57:09;6.38;;;3.97;;
52668;SDS011;76842;52.786;6.892;2024-03-02T10:00:29;6.72;;;3.42;;
52668;SDS011;76842;52.786;6.892;2024-03-02T10:03:50;5.53;;;3.83;;
52668;SDS011;76842;52.786;6.892;2024-03-02T10:07:15;5.18;;;3.22;;
52668;SDS011;76842;52.786;6.892;2024-03-02T10:10:38;4.65;;;3.47;;
52668;SDS011;76842;52.786;6.892;2024-03-02T10:14:10;6.18;;;3.42;;
52668;SDS011;76842;52.786;6.892;2024-03-02T10:17:32;4.53;;;3.38;;
52668;SDS011;76842;52.786;6.892;2024-03-02T10:20:53;3.85;;;2.88;;
52668;SDS011;76842;52.786;6.892;2024-03-02T10:24:13;4.38;;;3.10;;
52668;SDS011;76842;52.786;6.892;2024-03-02T10:27:34;7.78;;;3.88;;
52668;SDS011;76842;52.786;6.892;2024-03-02T10:30:54;3.88;;;2.85;;
52668;SDS011;76842;52.786;6.892;2024-03-02T10:34:15;3.47;;;2.80;;
52668;SDS011;76842;52.786;6.892;2024-03-02T10:37:36;3.85;;;2.80;;
52668;SDS011;76842;52.786;6.892;2024-03-02T10:40:57;7.15;;;2.60;;
52668;SDS011;76842;52.786;6.892;2024-03-02T10:44:19;4.43;;;3.08;;
52668;SDS011;76842;52.786;6.892;2024-03-02T10:47:45;6.47;;;2.23;;
52668;SDS011;76842;52.786;6.892;2024-03-02T10:51:07;4.72;;;3.05;;
52668;SDS011;76842;52.786;6.892;2024-03-02T10:54:27;5.65;;;4.03;;
52668;SDS011;76842;52.786;6.892;2024-03-02T10:57:56;4.85;;;3.10;;
52668;SDS011;76842;52.786;6.892;2024-03-02T11:01:23;6.18;;;2.67;;
52668;SDS011;76842;52.786;6.892;2024-03-02T11:04:45;4.57;;;3.25;;
52668;SDS011;76842;52.786;6.892;2024-03-02T11:08:12;4.35;;;2.83;;
52668;SDS011;76842;52.786;6.892;2024-03-02T11:11:36;4.57;;;3.47;;
52668;SDS011;76842;52.786;6.892;2024-03-02T11:14:59;5.97;;;4.05;;
52668;SDS011;76842;52.786;6.892;2024-03-02T11:18:20;4.93;;;3.95;;
52668;SDS011;76842;52.786;6.892;2024-03-02T11:21:41;6.65;;;3.20;;
52668;SDS011;76842;52.786;6.892;2024-03-02T11:25:03;4.82;;;3.50;;
52668;SDS011;76842;52.786;6.892;2024-03-02T11:28:34;8.35;;;4.03;;
52668;SDS011;76842;52.786;6.892;2024-03-02T11:31:58;6.72;;;3.58;;
52668;SDS011;76842;52.786;6.892;2024-03-02T11:35:20;4.37;;;3.70;;
52668;SDS011;76842;52.786;6.892;2024-03-02T11:38:40;4.90;;;3.17;;
52668;SDS011;76842;52.786;6.892;2024-03-02T11:42:08;5.28;;;3.17;;
52668;SDS011;76842;52.786;6.892;2024-03-02T11:45:30;5.85;;;3.55;;
52668;SDS011;76842;52.786;6.892;2024-03-02T11:48:53;6.75;;;3.35;;
52668;SDS011;76842;52.786;6.892;2024-03-02T11:52:14;5.95;;;3.05;;
52668;SDS011;76842;52.786;6.892;2024-03-02T11:55:36;5.00;;;3.20;;
52668;SDS011;76842;52.786;6.892;2024-03-02T11:58:57;4.65;;;3.63;;
52668;SDS011;76842;52.786;6.892;2024-03-02T12:02:21;4.95;;;3.40;;
52668;SDS011;76842;52.786;6.892;2024-03-02T12:05:42;5.38;;;3.17;;
52668;SDS011;76842;52.786;6.892;2024-03-02T12:09:03;4.80;;;3.25;;
52668;SDS011;76842;52.786;6.892;2024-03-02T12:12:24;5.68;;;2.70;;
52668;SDS011;76842;52.786;6.892;2024-03-02T12:15:44;3.88;;;2.58;;
52668;SDS011;76842;52.786;6.892;2024-03-02T12:19:05;6.50;;;3.30;;
52668;SDS011;76842;52.786;6.892;2024-03-02T12:22:26;5.10;;;3.28;;
52668;SDS011;76842;52.786;6.892;2024-03-02T12:25:46;5.50;;;3.00;;
52668;SDS011;76842;52.786;6.892;2024-03-02T12:29:07;3.95;;;2.85;;
52668;SDS011;76842;52.786;6.892;2024-03-02T12:32:28;5.45;;;3.72;;
52668;SDS011;76842;52.786;6.892;2024-03-02T12:35:49;5.68;;;2.90;;
52668;SDS011;76842;52.786;6.892;2024-03-02T12:39:10;5.13;;;2.88;;
52668;SDS011;76842;52.786;6.892;2024-03-02T12:42:30;4.20;;;2.55;;
52668;SDS011;76842;52.786;6.892;2024-03-02T12:45:51;4.07;;;2.63;;
52668;SDS011;76842;52.786;6.892;2024-03-02T12:49:16;6.72;;;3.63;;
52668;SDS011;76842;52.786;6.892;2024-03-02T12:52:36;3.70;;;2.75;;
52668;SDS011;76842;52.786;6.892;2024-03-02T12:55:57;4.32;;;2.63;;
52668;SDS011;76842;52.786;6.892;2024-03-02T12:59:18;4.85;;;2.30;;
52668;SDS011;76842;52.786;6.892;2024-03-02T13:02:42;2.20;;;1.88;;
52668;SDS011;76842;52.786;6.892;2024-03-02T13:06:03;3.28;;;1.92;;
52668;SDS011;76842;52.786;6.892;2024-03-02T13:09:24;3.20;;;2.30;;
52668;SDS011;76842;52.786;6.892;2024-03-02T13:12:45;3.83;;;2.30;;
52668;SDS011;76842;52.786;6.892;2024-03-02T13:16:08;3.88;;;2.00;;
52668;SDS011;76842;52.786;6.892;2024-03-02T13:19:31;3.33;;;2.10;;
52668;SDS011;76842;52.786;6.892;2024-03-02T13:22:51;6.05;;;2.75;;
52668;SDS011;76842;52.786;6.892;2024-03-02T13:26:12;8.32;;;2.45;;
52668;SDS011;76842;52.786;6.892;2024-03-02T13:29:33;3.03;;;1.98;;
52668;SDS011;76842;52.786;6.892;2024-03-02T13:32:54;2.83;;;1.90;;
52668;SDS011;76842;52.786;6.892;2024-03-02T13:36:15;4.90;;;2.88;;
52668;SDS011;76842;52.786;6.892;2024-03-02T13:39:35;4.90;;;2.28;;
52668;SDS011;76842;52.786;6.892;2024-03-02T13:43:02;3.63;;;2.72;;
52668;SDS011;76842;52.786;6.892;2024-03-02T13:46:23;3.90;;;2.63;;
52668;SDS011;76842;52.786;6.892;2024-03-02T13:49:44;4.70;;;2.53;;
52668;SDS011;76842;52.786;6.892;2024-03-02T13:53:06;4.00;;;2.88;;
52668;SDS011;76842;52.786;6.892;2024-03-02T13:56:27;5.10;;;3.28;;
52668;SDS011;76842;52.786;6.892;2024-03-02T13:59:48;3.95;;;3.10;;
52668;SDS011;76842;52.786;6.892;2024-03-02T14:03:09;3.22;;;2.47;;
52668;SDS011;76842;52.786;6.892;2024-03-02T14:06:29;4.70;;;3.17;;
52668;SDS011;76842;52.786;6.892;2024-03-02T14:09:50;5.20;;;2.72;;
52668;SDS011;76842;52.786;6.892;2024-03-02T14:13:10;3.40;;;2.60;;
52668;SDS011;76842;52.786;6.892;2024-03-02T14:16:31;3.58;;;2.65;;
52668;SDS011;76842;52.786;6.892;2024-03-02T14:19:52;7.45;;;3.20;;
52668;SDS011;76842;52.786;6.892;2024-03-02T14:23:13;3.78;;;3.00;;
52668;SDS011;76842;52.786;6.892;2024-03-02T14:26:34;4.68;;;3.08;;
52668;SDS011;76842;52.786;6.892;2024-03-02T14:29:56;8.43;;;3.27;;
52668;SDS011;76842;52.786;6.892;2024-03-02T14:33:17;3.92;;;3.50;;
52668;SDS011;76842;52.786;6.892;2024-03-02T14:36:38;5.82;;;2.85;;
52668;SDS011;76842;52.786;6.892;2024-03-02T14:39:58;4.65;;;3.17;;
52668;SDS011;76842;52.786;6.892;2024-03-02T14:43:19;5.50;;;3.15;;
52668;SDS011;76842;52.786;6.892;2024-03-02T14:46:39;5.97;;;3.30;;
52668;SDS011;76842;52.786;6.892;2024-03-02T14:50:01;4.25;;;2.90;;
52668;SDS011;76842;52.786;6.892;2024-03-02T14:53:28;5.70;;;3.33;;
52668;SDS011;76842;52.786;6.892;2024-03-02T14:56:49;3.53;;;2.88;;
52668;SDS011;76842;52.786;6.892;2024-03-02T15:00:10;3.10;;;2.65;;
52668;SDS011;76842;52.786;6.892;2024-03-02T15:03:31;4.40;;;3.28;;
52668;SDS011;76842;52.786;6.892;2024-03-02T15:06:53;8.30;;;3.67;;
52668;SDS011;76842;52.786;6.892;2024-03-02T15:10:13;7.72;;;2.90;;
52668;SDS011;76842;52.786;6.892;2024-03-02T15:13:34;5.43;;;2.80;;
52668;SDS011;76842;52.786;6.892;2024-03-02T15:16:54;5.05;;;2.88;;
52668;SDS011;76842;52.786;6.892;2024-03-02T15:20:16;5.93;;;2.90;;
52668;SDS011;76842;52.786;6.892;2024-03-02T15:23:37;3.88;;;2.55;;
52668;SDS011;76842;52.786;6.892;2024-03-02T15:26:57;4.38;;;3.03;;
52668;SDS011;76842;52.786;6.892;2024-03-02T15:30:18;4.78;;;3.20;;
52668;SDS011;76842;52.786;6.892;2024-03-02T15:33:38;5.13;;;2.47;;
52668;SDS011;76842;52.786;6.892;2024-03-02T15:36:59;4.63;;;3.08;;
52668;SDS011;76842;52.786;6.892;2024-03-02T15:40:20;4.43;;;2.88;;
52668;SDS011;76842;52.786;6.892;2024-03-02T15:43:41;7.95;;;2.80;;
52668;SDS011;76842;52.786;6.892;2024-03-02T15:47:02;5.07;;;2.70;;
52668;SDS011;76842;52.786;6.892;2024-03-02T15:50:23;5.43;;;2.35;;
52668;SDS011;76842;52.786;6.892;2024-03-02T15:53:44;4.40;;;2.30;;
52668;SDS011;76842;52.786;6.892;2024-03-02T15:57:04;4.47;;;2.58;;
52668;SDS011;76842;52.786;6.892;2024-03-02T16:00:25;3.90;;;2.97;;
52668;SDS011;76842;52.786;6.892;2024-03-02T16:03:46;4.13;;;3.05;;
52668;SDS011;76842;52.786;6.892;2024-03-02T16:07:06;2.90;;;2.30;;
52668;SDS011;76842;52.786;6.892;2024-03-02T16:10:27;4.07;;;2.58;;
52668;SDS011;76842;52.786;6.892;2024-03-02T16:13:48;4.55;;;2.78;;
52668;SDS011;76842;52.786;6.892;2024-03-02T16:17:09;3.95;;;2.45;;
52668;SDS011;76842;52.786;6.892;2024-03-02T16:20:29;3.92;;;2.13;;
52668;SDS011;76842;52.786;6.892;2024-03-02T16:23:50;3.70;;;2.30;;
52668;SDS011;76842;52.786;6.892;2024-03-02T16:27:11;3.35;;;2.10;;
52668;SDS011;76842;52.786;6.892;2024-03-02T16:30:31;3.53;;;2.28;;
52668;SDS011;76842;52.786;6.892;2024-03-02T16:33:52;2.72;;;1.90;;
52668;SDS011;76842;52.786;6.892;2024-03-02T16:37:13;2.95;;;1.90;;
52668;SDS011;76842;52.786;6.892;2024-03-02T16:40:33;4.93;;;2.55;;
52668;SDS011;76842;52.786;6.892;2024-03-02T16:43:54;3.67;;;2.45;;
52668;SDS011;76842;52.786;6.892;2024-03-02T16:47:15;3.30;;;2.00;;
52668;SDS011;76842;52.786;6.892;2024-03-02T16:50:35;3.08;;;2.50;;
52668;SDS011;76842;52.786;6.892;2024-03-02T16:53:56;3.10;;;2.25;;
52668;SDS011;76842;52.786;6.892;2024-03-02T16:57:17;4.13;;;2.30;;
52668;SDS011;76842;52.786;6.892;2024-03-02T17:00:37;3.22;;;2.00;;
52668;SDS011;76842;52.786;6.892;2024-03-02T17:03:58;3.65;;;1.88;;
52668;SDS011;76842;52.786;6.892;2024-03-02T17:07:19;2.65;;;1.90;;
52668;SDS011;76842;52.786;6.892;2024-03-02T17:10:40;5.03;;;2.10;;
52668;SDS011;76842;52.786;6.892;2024-03-02T17:14:00;2.60;;;1.88;;
52668;SDS011;76842;52.786;6.892;2024-03-02T17:17:23;4.40;;;2.20;;
52668;SDS011;76842;52.786;6.892;2024-03-02T17:20:43;3.13;;;2.25;;
52668;SDS011;76842;52.786;6.892;2024-03-02T17:24:04;3.35;;;2.03;;
52668;SDS011;76842;52.786;6.892;2024-03-02T17:27:25;2.70;;;2.08;;
52668;SDS011;76842;52.786;6.892;2024-03-02T17:30:46;3.58;;;2.30;;
52668;SDS011;76842;52.786;6.892;2024-03-02T17:34:07;3.05;;;2.22;;
52668;SDS011;76842;52.786;6.892;2024-03-02T17:37:28;3.45;;;2.47;;
52668;SDS011;76842;52.786;6.892;2024-03-02T17:40:48;3.92;;;2.30;;
52668;SDS011;76842;52.786;6.892;2024-03-02T17:44:09;3.63;;;2.47;;
52668;SDS011;76842;52.786;6.892;2024-03-02T17:47:30;3.75;;;2.80;;
52668;SDS011;76842;52.786;6.892;2024-03-02T17:50:51;4.95;;;3.05;;
52668;SDS011;76842;52.786;6.892;2024-03-02T17:54:11;4.25;;;2.85;;
52668;SDS011;76842;52.786;6.892;2024-03-02T17:57:32;3.40;;;2.47;;
52668;SDS011;76842;52.786;6.892;2024-03-02T18:00:52;4.93;;;2.88;;
52668;SDS011;76842;52.786;6.892;2024-03-02T18:04:13;5.55;;;3.10;;
52668;SDS011;76842;52.786;6.892;2024-03-02T18:07:34;3.45;;;2.58;;
52668;SDS011;76842;52.786;6.892;2024-03-02T18:10:56;6.03;;;3.40;;
52668;SDS011;76842;52.786;6.892;2024-03-02T18:14:17;3.03;;;2.50;;
52668;SDS011;76842;52.786;6.892;2024-03-02T18:17:37;3.67;;;2.90;;
52668;SDS011;76842;52.786;6.892;2024-03-02T18:20:58;2.95;;;2.38;;
52668;SDS011;76842;52.786;6.892;2024-03-02T18:24:18;3.22;;;2.72;;
52668;SDS011;76842;52.786;6.892;2024-03-02T18:27:43;3.33;;;2.83;;
52668;SDS011;76842;52.786;6.892;2024-03-02T18:31:04;4.03;;;2.75;;
52668;SDS011;76842;52.786;6.892;2024-03-02T18:34:25;6.40;;;4.13;;
52668;SDS011;76842;52.786;6.892;2024-03-02T18:37:46;5.35;;;3.70;;
52668;SDS011;76842;52.786;6.892;2024-03-02T18:41:06;5.47;;;3.55;;
52668;SDS011;76842;52.786;6.892;2024-03-02T18:44:27;6.72;;;4.13;;
52668;SDS011;76842;52.786;6.892;2024-03-02T18:47:47;5.32;;;4.20;;
52668;SDS011;76842;52.786;6.892;2024-03-02T18:51:08;5.30;;;4.10;;
52668;SDS011;76842;52.786;6.892;2024-03-02T18:54:29;4.38;;;3.40;;
52668;SDS011;76842;52.786;6.892;2024-03-02T18:57:49;5.00;;;3.85;;
52668;SDS011;76842;52.786;6.892;2024-03-02T19:01:10;6.22;;;4.15;;
52668;SDS011;76842;52.786;6.892;2024-03-02T19:04:31;4.43;;;3.47;;
52668;SDS011;76842;52.786;6.892;2024-03-02T19:07:51;6.25;;;4.50;;
52668;SDS011;76842;52.786;6.892;2024-03-02T19:11:15;6.65;;;4.47;;
52668;SDS011;76842;52.786;6.892;2024-03-02T19:14:37;5.78;;;3.80;;
52668;SDS011;76842;52.786;6.892;2024-03-02T19:17:57;7.20;;;4.45;;
52668;SDS011;76842;52.786;6.892;2024-03-02T19:21:18;6.57;;;4.72;;
52668;SDS011;76842;52.786;6.892;2024-03-02T19:24:39;6.82;;;4.50;;
52668;SDS011;76842;52.786;6.892;2024-03-02T19:28:00;7.47;;;4.00;;
52668;SDS011;76842;52.786;6.892;2024-03-02T19:31:21;6.55;;;4.93;;
52668;SDS011;76842;52.786;6.892;2024-03-02T19:34:41;6.30;;;4.85;;
52668;SDS011;76842;52.786;6.892;2024-03-02T19:38:02;6.70;;;5.25;;
52668;SDS011;76842;52.786;6.892;2024-03-02T19:41:23;4.97;;;4.13;;
52668;SDS011;76842;52.786;6.892;2024-03-02T19:44:44;6.35;;;5.30;;
52668;SDS011;76842;52.786;6.892;2024-03-02T19:48:05;6.00;;;5.18;;
52668;SDS011;76842;52.786;6.892;2024-03-02T19:51:25;7.60;;;5.28;;
52668;SDS011;76842;52.786;6.892;2024-03-02T19:54:46;5.63;;;4.55;;
52668;SDS011;76842;52.786;6.892;2024-03-02T19:58:07;5.57;;;4.95;;
52668;SDS011;76842;52.786;6.892;2024-03-02T20:01:27;6.70;;;4.82;;
52668;SDS011;76842;52.786;6.892;2024-03-02T20:04:48;6.82;;;5.00;;
52668;SDS011;76842;52.786;6.892;2024-03-02T20:08:09;6.57;;;5.85;;
52668;SDS011;76842;52.786;6.892;2024-03-02T20:11:30;6.40;;;5.55;;
52668;SDS011;76842;52.786;6.892;2024-03-02T20:14:52;8.00;;;5.88;;